createdAt,value
2019-01-18T00:00:43.860Z,47.18
2019-01-18T00:01:43.822Z,46.90
2019-01-18T00:02:43.788Z,47.37
2019-01-18T00:03:43.748Z,47.18
2019-01-18T00:04:43.711Z,47.37
2019-01-18T00:05:43.678Z,47.47
2019-01-18T00:06:43.639Z,47.56
2019-01-18T00:07:43.604Z,47.66
2019-01-18T00:08:43.566Z,47.66
2019-01-18T00:09:43.531Z,47.66
2019-01-18T00:10:43.494Z,47.37
2019-01-18T00:11:43.454Z,47.47
2019-01-18T00:12:43.418Z,47.66
2019-01-18T00:13:43.382Z,47.85
2019-01-18T00:14:43.346Z,47.56
2019-01-18T00:15:43.307Z,47.47
2019-01-18T00:16:43.272Z,47.37
2019-01-18T00:17:43.234Z,47.47
2019-01-18T00:18:43.197Z,47.56
2019-01-18T00:19:43.161Z,48.41
2019-01-18T00:20:43.125Z,48.41
2019-01-18T00:21:43.087Z,48.13
2019-01-18T00:22:43.051Z,48.22
2019-01-18T00:23:43.013Z,48.13
2019-01-18T00:24:42.976Z,48.69
2019-01-18T00:25:42.941Z,48.50
2019-01-18T00:26:42.910Z,48.50
2019-01-18T00:27:42.871Z,48.50
2019-01-18T00:28:42.830Z,48.50
2019-01-18T00:29:42.796Z,48.41
2019-01-18T00:30:42.803Z,48.13
2019-01-18T00:31:42.720Z,48.22
2019-01-18T00:32:42.684Z,48.22
2019-01-18T00:33:42.646Z,48.32
2019-01-18T00:34:42.609Z,48.32
2019-01-18T00:35:42.572Z,48.41
2019-01-18T00:36:42.536Z,48.03
2019-01-18T00:37:42.499Z,48.32
2019-01-18T00:38:42.462Z,48.41
2019-01-18T00:39:42.428Z,48.13
2019-01-18T00:40:42.391Z,48.32
2019-01-18T00:41:42.353Z,48.03
2019-01-18T00:42:42.318Z,48.03
2019-01-18T00:43:42.279Z,48.60
2019-01-18T00:44:42.243Z,48.50
2019-01-18T00:45:42.210Z,48.41
2019-01-18T00:46:42.171Z,48.50
2019-01-18T00:47:42.132Z,48.41
2019-01-18T00:48:42.097Z,48.41
2019-01-18T00:49:42.061Z,48.60
2019-01-18T00:50:42.025Z,48.50
2019-01-18T00:51:41.987Z,48.69
2019-01-18T00:52:41.950Z,48.79
2019-01-18T00:53:41.915Z,48.60
2019-01-18T00:54:41.878Z,48.79
2019-01-18T00:55:41.842Z,48.88
2019-01-18T00:56:41.803Z,48.88
2019-01-18T00:57:41.769Z,48.88
2019-01-18T00:58:41.730Z,48.69
2019-01-18T00:59:41.694Z,48.88
2019-01-18T01:00:41.658Z,49.26
2019-01-18T01:01:41.621Z,49.07
2019-01-18T01:02:41.587Z,49.54
2019-01-18T01:03:41.546Z,49.64
2019-01-18T01:04:41.511Z,49.73
2019-01-18T01:05:41.475Z,49.73
2019-01-18T01:06:41.438Z,50.21
2019-01-18T01:07:41.401Z,50.49
2019-01-18T01:08:41.364Z,50.78
2019-01-18T01:09:41.328Z,51.72
2019-01-18T01:10:41.290Z,51.72
2019-01-18T01:11:41.253Z,52.00
2019-01-18T01:12:41.218Z,52.10
2019-01-18T01:13:41.181Z,51.91
2019-01-18T01:14:41.143Z,52.57
2019-01-18T01:15:41.106Z,52.86
2019-01-18T01:16:41.069Z,52.86
2019-01-18T01:17:41.036Z,53.42
2019-01-18T01:18:40.997Z,53.42
2019-01-18T01:19:40.961Z,53.89
2019-01-18T01:20:40.922Z,54.08
2019-01-18T01:21:40.886Z,53.70
2019-01-18T01:22:40.852Z,53.89
2019-01-18T01:23:40.811Z,53.80
2019-01-18T01:24:40.775Z,54.27
2019-01-18T01:25:40.742Z,54.27
2019-01-18T01:26:40.702Z,54.27
2019-01-18T01:27:40.662Z,54.74
2019-01-18T01:28:40.626Z,54.74
2019-01-18T01:29:43.187Z,55.50
2019-01-18T01:30:40.552Z,55.31
2019-01-18T01:31:40.514Z,56.35
2019-01-18T01:32:40.478Z,56.26
2019-01-18T01:33:40.441Z,56.54
2019-01-18T01:34:40.404Z,56.54
2019-01-18T01:35:40.366Z,56.63
2019-01-18T01:36:40.329Z,57.01
2019-01-18T01:37:40.294Z,57.11
2019-01-18T01:38:40.254Z,57.68
2019-01-18T01:39:40.215Z,57.96
2019-01-18T01:40:40.179Z,58.34
2019-01-18T01:41:40.142Z,58.62
2019-01-18T01:42:40.105Z,59.00
2019-01-18T01:43:40.067Z,58.81
2019-01-18T01:44:40.030Z,58.62
2019-01-18T01:45:39.993Z,59.09
2019-01-18T01:46:39.956Z,58.72
2019-01-18T01:47:39.920Z,59.19
2019-01-18T01:48:39.880Z,59.47
2019-01-18T01:49:39.843Z,59.95
2019-01-18T01:50:39.807Z,60.04
2019-01-18T01:51:39.772Z,61.46
2019-01-18T01:52:39.732Z,61.46
2019-01-18T01:53:39.694Z,61.55
2019-01-18T01:54:39.657Z,62.12
2019-01-18T01:55:39.620Z,61.80
2019-01-18T01:56:39.584Z,62.56
2019-01-18T01:57:39.544Z,62.47
2019-01-18T01:58:39.507Z,62.09
2019-01-18T01:59:39.470Z,62.18
2019-01-18T02:00:39.431Z,61.90
2019-01-18T02:01:39.395Z,62.09
2019-01-18T02:02:39.358Z,62.37
2019-01-18T02:03:39.320Z,61.99
2019-01-18T02:04:39.282Z,61.99
2019-01-18T02:05:39.245Z,62.18
2019-01-18T02:06:39.208Z,62.75
2019-01-18T02:07:39.170Z,63.04
2019-01-18T02:08:39.131Z,62.56
2019-01-18T02:09:39.097Z,63.42
2019-01-18T02:10:39.058Z,63.23
2019-01-18T02:11:39.019Z,63.60
2019-01-18T02:12:38.982Z,65.11
2019-01-18T02:13:38.945Z,65.68
2019-01-18T02:14:38.911Z,66.35
2019-01-18T02:15:38.870Z,66.63
2019-01-18T02:16:38.833Z,67.41
2019-01-18T02:17:38.795Z,67.66
2019-01-18T02:18:38.757Z,67.76
2019-01-18T02:19:38.719Z,68.08
2019-01-18T02:20:38.682Z,70.06
2019-01-18T02:21:38.646Z,70.50
2019-01-18T02:22:38.609Z,70.54
2019-01-18T02:23:38.571Z,75.64
2019-01-18T02:24:38.532Z,75.83
2019-01-18T02:25:38.495Z,79.24
2019-01-18T02:26:38.459Z,80.75
2019-01-18T02:27:38.421Z,80.27
2019-01-18T02:28:38.384Z,82.73
2019-01-18T02:29:38.346Z,80.84
2019-01-18T02:30:38.309Z,83.59
2019-01-18T02:31:38.273Z,84.44
2019-01-18T02:32:38.242Z,84.81
2019-01-18T02:33:38.196Z,86.52
2019-01-18T02:34:38.159Z,85.57
2019-01-18T02:35:38.122Z,87.18
2019-01-18T02:36:38.084Z,88.22
2019-01-18T02:37:38.049Z,87.55
2019-01-18T02:38:38.013Z,87.27
2019-01-18T02:39:37.973Z,86.14
2019-01-18T02:40:37.935Z,88.60
2019-01-18T02:41:37.898Z,93.51
2019-01-18T02:42:37.862Z,90.86
2019-01-18T02:43:37.823Z,90.68
2019-01-18T02:44:37.790Z,90.11
2019-01-18T02:45:37.753Z,89.17
2019-01-18T02:46:37.713Z,90.11
2019-01-18T02:47:37.673Z,89.45
2019-01-18T02:48:37.639Z,88.03
2019-01-18T02:49:37.604Z,88.50
2019-01-18T02:50:37.563Z,90.11
2019-01-18T02:51:37.524Z,90.54
2019-01-18T02:52:37.486Z,88.03
2019-01-18T02:53:37.457Z,86.42
2019-01-18T02:54:37.413Z,85.57
2019-01-18T02:55:37.375Z,86.99
2019-01-18T02:56:37.339Z,87.65
2019-01-18T02:57:37.302Z,87.46
2019-01-18T02:58:37.264Z,89.45
2019-01-18T02:59:37.226Z,90.73
2019-01-18T03:00:37.191Z,89.87
2019-01-18T03:01:37.154Z,92.71
2019-01-18T03:02:37.115Z,92.10
2019-01-18T03:03:37.082Z,92.10
2019-01-18T03:04:37.040Z,93.04
2019-01-18T03:05:37.004Z,94.27
2019-01-18T03:06:36.969Z,91.72
2019-01-18T03:07:36.928Z,90.58
2019-01-18T03:08:36.892Z,90.77
2019-01-18T03:09:36.855Z,89.07
2019-01-18T03:10:36.823Z,88.31
2019-01-18T03:11:36.779Z,89.40
2019-01-18T03:12:36.743Z,87.70
2019-01-18T03:13:36.706Z,88.36
2019-01-18T03:14:36.669Z,87.89
2019-01-18T03:15:36.631Z,87.61
2019-01-18T03:16:36.597Z,87.89
2019-01-18T03:17:36.555Z,86.00
2019-01-18T03:18:36.520Z,89.22
2019-01-18T03:19:36.480Z,88.74
2019-01-18T03:20:36.448Z,88.93
2019-01-18T03:21:36.407Z,88.65
2019-01-18T03:22:36.369Z,86.47
2019-01-18T03:23:36.333Z,85.72
2019-01-18T03:24:36.296Z,84.77
2019-01-18T03:25:36.257Z,87.04
2019-01-18T03:26:36.220Z,89.87
2019-01-18T03:27:36.185Z,89.69
2019-01-18T03:28:36.149Z,87.79
2019-01-18T03:29:36.109Z,85.81
2019-01-18T03:30:36.074Z,89.40
2019-01-18T03:31:36.034Z,89.69
2019-01-18T03:32:35.997Z,91.39
2019-01-18T03:33:35.960Z,92.61
2019-01-18T03:34:35.921Z,90.91
2019-01-18T03:35:35.884Z,90.91
2019-01-18T03:36:35.848Z,92.05
2019-01-18T03:37:35.808Z,92.52
2019-01-18T03:38:35.773Z,90.06
2019-01-18T03:39:35.734Z,91.29
2019-01-18T03:40:35.697Z,92.14
2019-01-18T03:41:35.661Z,92.05
2019-01-18T03:42:35.621Z,92.14
2019-01-18T03:43:35.585Z,92.43
2019-01-18T03:44:35.547Z,92.90
2019-01-18T03:45:35.510Z,92.61
2019-01-18T03:46:35.471Z,92.33
2019-01-18T03:47:35.442Z,92.24
2019-01-18T03:48:35.396Z,92.14
2019-01-18T03:49:35.358Z,92.14
2019-01-18T03:50:35.324Z,91.67
2019-01-18T03:51:35.282Z,91.58
2019-01-18T03:52:35.245Z,91.48
2019-01-18T03:53:35.209Z,90.73
2019-01-18T03:54:35.171Z,91.96
2019-01-18T03:55:35.133Z,90.82
2019-01-18T03:56:35.096Z,90.25
2019-01-18T03:57:35.057Z,90.06
2019-01-18T03:58:35.021Z,88.74
2019-01-18T03:59:34.980Z,90.25
2019-01-18T04:00:34.942Z,89.87
2019-01-18T04:01:34.906Z,88.55
2019-01-18T04:02:34.870Z,87.61
2019-01-18T04:03:34.830Z,89.22
2019-01-18T04:04:34.792Z,89.40
2019-01-18T04:05:34.754Z,88.17
2019-01-18T04:06:34.717Z,88.27
2019-01-18T04:07:34.679Z,88.84
2019-01-18T04:08:34.642Z,88.36
2019-01-18T04:09:34.607Z,86.94
2019-01-18T04:10:34.564Z,85.86
2019-01-18T04:11:34.526Z,85.43
2019-01-18T04:12:34.488Z,85.01
2019-01-18T04:13:34.452Z,84.54
2019-01-18T04:14:34.412Z,83.69
2019-01-18T04:15:34.374Z,82.56
2019-01-18T04:16:34.339Z,81.04
2019-01-18T04:17:34.300Z,81.04
2019-01-18T04:18:34.261Z,81.23
2019-01-18T04:19:34.222Z,81.14
2019-01-18T04:20:34.183Z,80.85
2019-01-18T04:21:34.147Z,81.23
2019-01-18T04:22:34.109Z,81.42
2019-01-18T04:23:34.072Z,80.00
2019-01-18T04:24:34.032Z,78.59
2019-01-18T04:25:33.995Z,78.40
2019-01-18T04:26:33.957Z,79.16
2019-01-18T04:27:33.916Z,78.97
2019-01-18T04:28:33.881Z,78.40
2019-01-18T04:29:33.907Z,78.50
2019-01-18T04:30:33.913Z,79.16
2019-01-18T04:31:33.764Z,78.78
2019-01-18T04:32:33.829Z,78.40
2019-01-18T04:33:33.690Z,79.25
2019-01-18T04:34:33.651Z,78.50
2019-01-18T04:35:33.613Z,78.59
2019-01-18T04:36:33.575Z,77.08
2019-01-18T04:37:33.536Z,76.32
2019-01-18T04:38:33.498Z,77.45
2019-01-18T04:39:33.460Z,77.36
2019-01-18T04:40:33.421Z,78.31
2019-01-18T04:41:33.385Z,78.50
2019-01-18T04:42:33.352Z,78.78
2019-01-18T04:43:33.308Z,79.16
2019-01-18T04:44:33.269Z,78.59
2019-01-18T04:45:33.231Z,77.93
2019-01-18T04:46:33.200Z,77.55
2019-01-18T04:47:33.154Z,76.70
2019-01-18T04:48:33.118Z,75.95
2019-01-18T04:49:33.078Z,75.57
2019-01-18T04:50:33.041Z,75.38
2019-01-18T04:51:33.001Z,74.24
2019-01-18T04:52:32.963Z,72.45
2019-01-18T04:53:32.927Z,70.37
2019-01-18T04:54:32.887Z,70.65
2019-01-18T04:55:32.847Z,71.22
2019-01-18T04:56:32.810Z,71.60
2019-01-18T04:57:32.772Z,71.31
2019-01-18T04:58:32.734Z,71.50
2019-01-18T04:59:32.701Z,72.83
2019-01-18T05:00:32.656Z,72.64
2019-01-18T05:01:32.623Z,73.58
2019-01-18T05:02:32.585Z,73.58
2019-01-18T05:03:32.543Z,72.55
2019-01-18T05:04:32.511Z,71.88
2019-01-18T05:05:32.467Z,72.45
2019-01-18T05:06:32.429Z,73.11
2019-01-18T05:07:32.389Z,74.15
2019-01-18T05:08:32.370Z,73.49
2019-01-18T05:09:32.311Z,74.53
2019-01-18T05:10:32.275Z,75.00
2019-01-18T05:11:32.234Z,73.39
2019-01-18T05:12:32.197Z,73.49
2019-01-18T05:13:32.159Z,73.68
2019-01-18T05:14:32.121Z,72.45
2019-01-18T05:15:32.081Z,71.69
2019-01-18T05:16:32.045Z,72.73
2019-01-18T05:17:32.005Z,72.73
2019-01-18T05:18:31.967Z,72.73
2019-01-18T05:19:31.930Z,73.49
2019-01-18T05:20:31.888Z,71.41
2019-01-18T05:21:31.851Z,71.98
2019-01-18T05:22:31.811Z,72.64
2019-01-18T05:23:31.774Z,73.77
2019-01-18T05:24:31.735Z,74.40
2019-01-18T05:25:31.700Z,73.77
2019-01-18T05:26:31.660Z,72.41
2019-01-18T05:27:31.620Z,72.03
2019-01-18T05:28:31.584Z,70.84
2019-01-18T05:29:31.543Z,70.81
2019-01-18T05:30:31.506Z,70.47
2019-01-18T05:31:31.465Z,69.05
2019-01-18T05:32:31.428Z,69.71
2019-01-18T05:33:31.398Z,70.37
2019-01-18T05:34:31.350Z,71.50
2019-01-18T05:35:31.311Z,72.45
2019-01-18T05:36:31.274Z,73.58
2019-01-18T05:37:31.235Z,73.07
2019-01-18T05:38:31.196Z,72.79
2019-01-18T05:39:31.156Z,71.28
2019-01-18T05:40:31.119Z,71.12
2019-01-18T05:41:31.079Z,70.62
2019-01-18T05:42:31.042Z,70.53
2019-01-18T05:43:31.004Z,70.24
2019-01-18T05:44:30.965Z,70.24
2019-01-18T05:45:30.925Z,69.11
2019-01-18T05:46:30.886Z,69.39
2019-01-18T05:47:30.847Z,68.39
2019-01-18T05:48:30.810Z,68.54
2019-01-18T05:49:30.773Z,69.39
2019-01-18T05:50:30.734Z,71.19
2019-01-18T05:51:30.692Z,72.41
2019-01-18T05:52:30.656Z,71.75
2019-01-18T05:53:30.619Z,70.72
2019-01-18T05:54:30.585Z,70.15
2019-01-18T05:55:30.543Z,70.05
2019-01-18T05:56:30.502Z,70.90
2019-01-18T05:57:30.463Z,70.24
2019-01-18T05:58:31.246Z,69.77
2019-01-18T05:59:30.386Z,68.54
2019-01-18T06:00:30.359Z,67.03
2019-01-18T06:01:30.414Z,67.13
2019-01-18T06:02:30.270Z,67.03
2019-01-18T06:03:30.229Z,67.22
2019-01-18T06:04:30.190Z,66.56
2019-01-18T06:05:30.152Z,65.33
2019-01-18T06:06:30.113Z,64.48
2019-01-18T06:07:30.081Z,64.48
2019-01-18T06:08:30.038Z,64.20
2019-01-18T06:09:30.002Z,64.20
2019-01-18T06:10:29.960Z,63.73
2019-01-18T06:11:29.921Z,63.26
2019-01-18T06:12:29.880Z,63.54
2019-01-18T06:13:29.842Z,64.48
2019-01-18T06:14:29.805Z,64.48
2019-01-18T06:15:29.765Z,65.42
2019-01-18T06:16:29.729Z,64.67
2019-01-18T06:17:29.688Z,64.39
2019-01-18T06:18:29.649Z,64.67
2019-01-18T06:19:29.609Z,65.14
2019-01-18T06:20:29.571Z,65.61
2019-01-18T06:21:29.533Z,65.33
2019-01-18T06:22:29.496Z,64.29
2019-01-18T06:23:29.454Z,64.11
2019-01-18T06:24:29.415Z,63.45
2019-01-18T06:25:29.377Z,63.45
2019-01-18T06:26:29.337Z,64.11
2019-01-18T06:27:29.301Z,64.48
2019-01-18T06:28:29.259Z,64.48
2019-01-18T06:29:29.222Z,63.63
2019-01-18T06:30:29.187Z,63.82
2019-01-18T06:31:29.143Z,64.39
2019-01-18T06:32:29.104Z,64.29
2019-01-18T06:33:29.979Z,63.73
2019-01-18T06:34:29.028Z,63.82
2019-01-18T06:35:28.987Z,63.63
2019-01-18T06:36:28.949Z,63.63
2019-01-18T06:37:28.910Z,64.20
2019-01-18T06:38:28.871Z,64.48
2019-01-18T06:39:28.833Z,64.76
2019-01-18T06:40:28.792Z,65.71
2019-01-18T06:41:28.753Z,65.80
2019-01-18T06:42:28.716Z,65.42
2019-01-18T06:43:28.678Z,65.80
2019-01-18T06:44:28.639Z,65.90
2019-01-18T06:45:28.601Z,64.76
2019-01-18T06:46:28.561Z,62.50
2019-01-18T06:47:28.521Z,62.21
2019-01-18T06:48:28.492Z,62.97
2019-01-18T06:49:28.443Z,63.82
2019-01-18T06:50:28.404Z,64.11
2019-01-18T06:51:28.366Z,63.54
2019-01-18T06:52:28.327Z,63.82
2019-01-18T06:53:28.289Z,63.82
2019-01-18T06:54:28.251Z,63.73
2019-01-18T06:55:28.209Z,62.88
2019-01-18T06:56:28.171Z,62.50
2019-01-18T06:57:28.131Z,61.74
2019-01-18T06:58:28.094Z,62.02
2019-01-18T06:59:28.054Z,62.69
2019-01-18T07:00:28.014Z,62.50
2019-01-18T07:01:27.976Z,62.40
2019-01-18T07:02:27.937Z,62.21
2019-01-18T07:03:27.900Z,62.31
2019-01-18T07:04:27.860Z,62.21
2019-01-18T07:05:27.822Z,62.31
2019-01-18T07:06:27.782Z,62.78
2019-01-18T07:07:27.740Z,62.69
2019-01-18T07:08:27.701Z,63.26
2019-01-18T07:09:27.663Z,62.59
2019-01-18T07:10:27.624Z,62.50
2019-01-18T07:11:27.585Z,63.45
2019-01-18T07:12:27.545Z,62.97
2019-01-18T07:13:27.506Z,63.54
2019-01-18T07:14:27.468Z,62.40
2019-01-18T07:15:27.428Z,61.84
2019-01-18T07:16:27.388Z,61.93
2019-01-18T07:17:27.351Z,62.31
2019-01-18T07:18:27.312Z,61.18
2019-01-18T07:19:27.270Z,61.36
2019-01-18T07:20:27.233Z,61.55
2019-01-18T07:21:27.192Z,61.93
2019-01-18T07:22:27.154Z,61.93
2019-01-18T07:23:27.114Z,62.31
2019-01-18T07:24:27.076Z,62.88
2019-01-18T07:25:27.037Z,63.54
2019-01-18T07:26:26.998Z,64.01
2019-01-18T07:27:26.958Z,63.73
2019-01-18T07:28:26.918Z,62.88
2019-01-18T07:29:26.881Z,63.26
2019-01-18T07:30:26.842Z,64.01
2019-01-18T07:31:26.801Z,64.48
2019-01-18T07:32:26.762Z,64.67
2019-01-18T07:33:26.723Z,64.86
2019-01-18T07:34:26.685Z,64.95
2019-01-18T07:35:26.644Z,65.80
2019-01-18T07:36:26.606Z,65.80
2019-01-18T07:37:26.567Z,66.28
2019-01-18T07:38:26.528Z,67.79
2019-01-18T07:39:26.488Z,69.30
2019-01-18T07:40:26.449Z,70.43
2019-01-18T07:41:26.413Z,71.19
2019-01-18T07:42:26.372Z,70.24
2019-01-18T07:43:26.331Z,68.92
2019-01-18T07:44:26.292Z,68.92
2019-01-18T07:45:26.255Z,68.44
2019-01-18T07:46:26.216Z,69.11
2019-01-18T07:47:26.177Z,70.72
2019-01-18T07:48:26.138Z,70.81
2019-01-18T07:49:26.097Z,70.53
2019-01-18T07:50:26.058Z,71.75
2019-01-18T07:51:26.022Z,72.69
2019-01-18T07:52:25.979Z,72.32
2019-01-18T07:53:25.942Z,69.67
2019-01-18T07:54:25.902Z,69.86
2019-01-18T07:55:25.863Z,71.94
2019-01-18T07:56:25.824Z,73.45
2019-01-18T07:57:25.784Z,75.24
2019-01-18T07:58:25.745Z,74.87
2019-01-18T07:59:25.721Z,75.15
2019-01-18T08:00:25.689Z,75.53
2019-01-18T08:01:25.631Z,76.85
2019-01-18T08:02:25.590Z,77.89
2019-01-18T08:03:25.549Z,77.32
2019-01-18T08:04:25.518Z,77.61
2019-01-18T08:05:25.472Z,76.38
2019-01-18T08:06:25.434Z,77.13
2019-01-18T08:07:25.394Z,78.64
2019-01-18T08:08:25.355Z,82.14
2019-01-18T08:09:25.340Z,87.33
2019-01-18T08:10:25.282Z,89.36
2019-01-18T08:11:25.238Z,98.43
2019-01-18T08:12:25.199Z,99.99
2019-01-18T08:13:25.161Z,99.99
2019-01-18T08:14:25.122Z,99.99
2019-01-18T08:15:25.083Z,99.99
2019-01-18T08:16:25.046Z,99.99
2019-01-18T08:17:25.007Z,99.99
2019-01-18T08:18:24.968Z,99.99
2019-01-18T08:19:24.929Z,99.99
2019-01-18T08:20:24.891Z,99.99
2019-01-18T08:21:24.854Z,99.99
2019-01-18T08:22:24.816Z,99.99
2019-01-18T08:23:24.777Z,99.99
2019-01-18T08:24:24.739Z,99.99
2019-01-18T08:25:24.702Z,99.99
2019-01-18T08:26:24.699Z,99.99
2019-01-18T08:27:24.625Z,99.99
2019-01-18T08:28:24.588Z,99.99
2019-01-18T08:29:24.551Z,99.99
2019-01-18T08:30:24.514Z,99.99
2019-01-18T08:31:28.866Z,99.99
2019-01-18T08:32:24.441Z,99.99
2019-01-18T08:33:24.401Z,99.99
2019-01-18T08:34:24.365Z,99.99
2019-01-18T08:35:24.326Z,99.99
2019-01-18T08:36:24.290Z,99.99
2019-01-18T08:37:24.253Z,99.99
2019-01-18T08:38:24.216Z,99.99
2019-01-18T08:39:24.179Z,99.99
2019-01-18T08:40:24.142Z,99.99
2019-01-18T08:41:24.105Z,99.99
2019-01-18T08:42:24.073Z,99.99
2019-01-18T08:43:24.031Z,99.99
2019-01-18T08:44:23.997Z,99.99
2019-01-18T08:45:23.959Z,99.99
2019-01-18T08:46:23.924Z,99.99
2019-01-18T08:47:23.888Z,99.99
2019-01-18T08:48:23.852Z,99.99
2019-01-18T08:49:23.815Z,99.99
2019-01-18T08:50:23.781Z,99.99
2019-01-18T08:51:23.746Z,99.99
2019-01-18T08:52:23.708Z,99.99
2019-01-18T08:53:23.714Z,99.99
2019-01-18T08:54:23.638Z,99.99
2019-01-18T08:55:23.603Z,99.99
2019-01-18T08:56:23.568Z,99.99
2019-01-18T08:57:23.531Z,99.99
2019-01-18T08:58:23.496Z,99.99
2019-01-18T08:59:23.460Z,99.99
2019-01-18T09:00:23.426Z,99.99
2019-01-18T09:01:23.392Z,99.99
2019-01-18T09:02:23.356Z,99.99
2019-01-18T09:03:23.320Z,99.99
2019-01-18T09:04:23.285Z,99.99
2019-01-18T09:05:23.251Z,99.99
2019-01-18T09:06:23.218Z,99.99
2019-01-18T09:07:23.181Z,99.99
2019-01-18T09:08:23.146Z,99.99
2019-01-18T09:09:23.114Z,99.99
2019-01-18T09:10:23.081Z,99.99
2019-01-18T09:11:23.044Z,99.99
2019-01-18T09:12:23.007Z,99.99
2019-01-18T09:13:22.974Z,99.99
2019-01-18T09:14:22.940Z,99.99
2019-01-18T09:15:22.904Z,99.99
2019-01-18T09:16:22.869Z,99.99
2019-01-18T09:17:22.837Z,99.99
2019-01-18T09:18:22.801Z,99.99
2019-01-18T09:19:22.765Z,99.99
2019-01-18T09:20:22.732Z,99.99
2019-01-18T09:21:22.698Z,99.99
2019-01-18T09:22:22.663Z,99.99
2019-01-18T09:23:22.629Z,99.99
2019-01-18T09:24:22.595Z,99.99
2019-01-18T09:25:22.567Z,99.99
2019-01-18T09:26:22.526Z,99.99
2019-01-18T09:27:22.491Z,99.99
2019-01-18T09:28:22.457Z,99.99
2019-01-18T09:29:22.424Z,99.99
2019-01-18T09:30:22.391Z,99.99
2019-01-18T09:31:22.356Z,99.99
2019-01-18T09:32:22.322Z,99.99
2019-01-18T09:33:22.290Z,99.99
2019-01-18T09:34:22.256Z,99.99
2019-01-18T09:35:22.218Z,99.99
2019-01-18T09:36:22.185Z,99.99
2019-01-18T09:37:22.151Z,99.99
2019-01-18T09:38:22.128Z,99.99
2019-01-18T09:39:22.081Z,99.99
2019-01-18T09:40:22.049Z,99.99
2019-01-18T09:41:22.019Z,99.99
2019-01-18T09:42:21.980Z,99.99
2019-01-18T09:43:21.944Z,99.99
2019-01-18T09:44:21.911Z,99.99
2019-01-18T09:45:21.879Z,99.99
2019-01-18T09:46:21.845Z,99.99
2019-01-18T09:47:21.809Z,99.99
2019-01-18T09:48:21.776Z,99.99
2019-01-18T09:49:21.747Z,99.99
2019-01-18T09:50:21.707Z,99.99
2019-01-18T09:51:21.675Z,99.99
2019-01-18T09:52:21.640Z,99.99
2019-01-18T09:53:21.606Z,99.99
2019-01-18T09:54:21.616Z,99.99
2019-01-18T09:55:21.537Z,99.99
2019-01-18T09:56:21.505Z,99.99
2019-01-18T09:57:21.471Z,99.99
2019-01-18T09:58:21.436Z,99.99
2019-01-18T09:59:21.403Z,99.99
2019-01-18T10:00:21.377Z,99.99
2019-01-18T10:01:21.335Z,99.99
2019-01-18T10:02:21.302Z,99.99
2019-01-18T10:03:21.268Z,99.99
2019-01-18T10:04:21.232Z,99.99
2019-01-18T10:05:21.199Z,99.99
2019-01-18T10:06:21.167Z,99.99
2019-01-18T10:07:21.132Z,99.99
2019-01-18T10:08:21.099Z,99.99
2019-01-18T10:09:21.065Z,99.99
2019-01-18T10:10:21.030Z,99.99
2019-01-18T10:11:20.996Z,99.99
2019-01-18T10:12:20.962Z,99.99
2019-01-18T10:13:20.930Z,99.99
2019-01-18T10:14:20.896Z,99.99
2019-01-18T10:15:20.863Z,99.99
2019-01-18T10:16:20.827Z,99.99
2019-01-18T10:17:20.794Z,99.99
2019-01-18T10:18:20.760Z,99.99
2019-01-18T10:19:20.729Z,99.99
2019-01-18T10:20:20.694Z,99.99
2019-01-18T10:21:20.659Z,99.99
2019-01-18T10:22:20.625Z,99.99
2019-01-18T10:23:20.591Z,99.99
2019-01-18T10:24:21.122Z,99.99
2019-01-18T10:25:20.525Z,99.99
2019-01-18T10:26:20.491Z,99.99
2019-01-18T10:27:23.909Z,99.99
2019-01-18T10:28:20.422Z,99.99
2019-01-18T10:29:20.390Z,99.99
2019-01-18T10:30:20.356Z,99.88
2019-01-18T10:31:20.322Z,98.07
2019-01-18T10:32:20.287Z,95.32
2019-01-18T10:33:20.255Z,99.99
2019-01-18T10:34:20.221Z,99.99
2019-01-18T10:35:20.186Z,99.99
2019-01-18T10:36:20.152Z,99.99
2019-01-18T10:37:20.121Z,99.99
2019-01-18T10:38:20.086Z,99.99
2019-01-18T10:39:20.051Z,99.99
2019-01-18T10:40:20.017Z,99.99
2019-01-18T10:41:19.983Z,99.99
2019-01-18T10:42:19.951Z,99.99
2019-01-18T10:43:19.917Z,99.99
2019-01-18T10:44:19.882Z,99.99
2019-01-18T10:45:19.852Z,99.99
2019-01-18T10:46:19.816Z,99.99
2019-01-18T10:47:19.782Z,99.99
2019-01-18T10:48:19.749Z,99.99
2019-01-18T10:49:19.715Z,99.99
2019-01-18T10:50:19.680Z,99.99
2019-01-18T10:51:19.647Z,99.99
2019-01-18T10:52:19.614Z,99.99
2019-01-18T10:53:19.579Z,95.27
2019-01-18T10:54:19.546Z,93.99
2019-01-18T10:55:19.511Z,99.78
2019-01-18T10:56:19.478Z,97.55
2019-01-18T10:57:19.445Z,98.07
2019-01-18T10:58:19.411Z,95.75
2019-01-18T10:59:19.377Z,99.99
2019-01-18T11:00:19.342Z,99.99
2019-01-18T11:01:19.307Z,98.41
2019-01-18T11:02:19.276Z,95.17
2019-01-18T11:03:19.241Z,99.99
2019-01-18T11:04:19.207Z,99.92
2019-01-18T11:05:19.173Z,99.50
2019-01-18T11:06:19.142Z,99.26
2019-01-18T11:07:19.105Z,99.64
2019-01-18T11:08:19.071Z,99.99
2019-01-18T11:09:19.037Z,99.99
2019-01-18T11:10:19.003Z,99.99
2019-01-18T11:11:18.969Z,99.99
2019-01-18T11:12:18.937Z,99.99
2019-01-18T11:13:18.901Z,99.99
2019-01-18T11:14:18.869Z,99.99
2019-01-18T11:15:18.833Z,99.99
2019-01-18T11:16:18.799Z,99.99
2019-01-18T11:17:18.766Z,99.99
2019-01-18T11:18:18.732Z,99.99
2019-01-18T11:19:18.696Z,99.99
2019-01-18T11:20:18.662Z,99.99
2019-01-18T11:21:18.629Z,99.99
2019-01-18T11:22:18.594Z,99.99
2019-01-18T11:23:18.559Z,99.99
2019-01-18T11:24:18.524Z,99.99
2019-01-18T11:25:18.493Z,99.99
2019-01-18T11:26:18.457Z,99.99
2019-01-18T11:27:18.425Z,99.99
2019-01-18T11:28:18.390Z,99.99
2019-01-18T11:29:18.355Z,99.99
2019-01-18T11:30:18.321Z,99.99
2019-01-18T11:31:18.287Z,99.99
2019-01-18T11:32:18.252Z,99.99
2019-01-18T11:33:18.218Z,99.99
2019-01-18T11:34:18.182Z,99.99
2019-01-18T11:35:18.147Z,99.99
2019-01-18T11:36:18.112Z,99.99
2019-01-18T11:37:18.079Z,99.99
2019-01-18T11:38:18.043Z,99.99
2019-01-18T11:39:18.008Z,99.99
2019-01-18T11:40:18.013Z,99.99
2019-01-18T11:41:17.941Z,99.99
2019-01-18T11:42:17.907Z,99.99
2019-01-18T11:43:17.873Z,99.99
2019-01-18T11:44:17.837Z,99.99
2019-01-18T11:45:17.802Z,99.99
2019-01-18T11:46:17.767Z,99.99
2019-01-18T11:47:17.732Z,99.99
2019-01-18T11:48:17.699Z,99.99
2019-01-18T11:49:17.663Z,99.99
2019-01-18T11:50:17.629Z,99.99
2019-01-18T11:51:17.593Z,99.99
2019-01-18T11:52:17.559Z,99.99
2019-01-18T11:53:17.525Z,99.99
2019-01-18T11:54:17.489Z,99.99
2019-01-18T11:55:17.454Z,99.99
2019-01-18T11:56:17.420Z,99.99
2019-01-18T11:57:17.385Z,99.99
2019-01-18T11:58:17.352Z,99.99
2019-01-18T11:59:17.316Z,99.99
2019-01-18T12:00:17.282Z,99.99
2019-01-18T12:01:17.248Z,99.99
2019-01-18T12:02:22.020Z,99.99
2019-01-18T12:03:17.176Z,99.99
2019-01-18T12:04:17.147Z,99.99
2019-01-18T12:05:17.114Z,99.99
2019-01-18T12:06:17.073Z,99.99
2019-01-18T12:07:17.039Z,99.99
2019-01-18T12:08:17.005Z,99.99
2019-01-18T12:09:16.970Z,99.99
2019-01-18T12:10:16.936Z,99.99
2019-01-18T12:11:16.903Z,99.99
2019-01-18T12:12:16.865Z,99.99
2019-01-18T12:13:16.832Z,99.99
2019-01-18T12:14:16.798Z,99.99
2019-01-18T12:15:16.761Z,99.99
2019-01-18T12:16:16.728Z,99.99
2019-01-18T12:17:16.694Z,99.99
2019-01-18T12:18:16.661Z,99.99
2019-01-18T12:19:16.625Z,99.99
2019-01-18T12:20:16.590Z,99.99
2019-01-18T12:21:16.554Z,99.99
2019-01-18T12:22:16.521Z,99.99
2019-01-18T12:23:16.486Z,99.99
2019-01-18T12:24:16.452Z,99.99
2019-01-18T12:25:16.416Z,99.99
2019-01-18T12:26:16.384Z,99.99
2019-01-18T12:27:16.346Z,99.99
2019-01-18T12:28:16.312Z,99.99
2019-01-18T12:29:16.278Z,99.99
2019-01-18T12:30:16.242Z,99.99
2019-01-18T12:31:16.209Z,99.99
2019-01-18T12:32:16.175Z,99.99
2019-01-18T12:33:16.139Z,99.99
2019-01-18T12:34:16.105Z,99.99
2019-01-18T12:35:16.071Z,99.99
2019-01-18T12:36:16.035Z,99.99
2019-01-18T12:37:16.002Z,99.99
2019-01-18T12:38:15.969Z,99.99
2019-01-18T12:39:15.933Z,99.99
2019-01-18T12:40:15.904Z,99.99
2019-01-18T12:41:15.865Z,99.99
2019-01-18T12:42:15.828Z,99.99
2019-01-18T12:43:15.794Z,99.99
2019-01-18T12:44:15.759Z,99.99
2019-01-18T12:45:15.724Z,99.99
2019-01-18T12:46:15.693Z,99.99
2019-01-18T12:47:15.656Z,99.99
2019-01-18T12:48:15.623Z,99.99
2019-01-18T12:49:15.586Z,99.99
2019-01-18T12:50:15.554Z,99.99
2019-01-18T12:51:15.520Z,99.99
2019-01-18T12:52:15.483Z,99.99